sensor_id;sensor_type;location;lat;lon;timestamp;P1;durP1;ratioP1;P2;durP2;ratioP2
2173;SDS011;1093;51.424;11.764;2023-09-12T00:02:06;15.23;;;10.73;;
2173;SDS011;1093;51.424;11.764;2023-09-12T00:04:32;22.80;;;10.17;;
2173;SDS011;1093;51.424;11.764;2023-09-12T00:07:01;21.00;;;10.10;;
2173;SDS011;1093;51.424;11.764;2023-09-12T00:19:58;14.10;;;10.13;;
2173;SDS011;1093;51.424;11.764;2023-09-12T00:22:26;14.20;;;9.63;;
2173;SDS011;1093;51.424;11.764;2023-09-12T00:24:53;18.93;;;9.63;;
2173;SDS011;1093;51.424;11.764;2023-09-12T00:27:22;15.20;;;10.10;;
2173;SDS011;1093;51.424;11.764;2023-09-12T00:40:26;20.53;;;10.57;;
2173;SDS011;1093;51.424;11.764;2023-09-12T00:42:53;21.90;;;11.10;;
2173;SDS011;1093;51.424;11.764;2023-09-12T00:45:22;21.90;;;10.50;;
2173;SDS011;1093;51.424;11.764;2023-09-12T00:47:55;24.43;;;11.10;;
2173;SDS011;1093;51.424;11.764;2023-09-12T00:54:04;15.87;;;9.53;;
2173;SDS011;1093;51.424;11.764;2023-09-12T00:56:47;16.20;;;10.13;;
2173;SDS011;1093;51.424;11.764;2023-09-12T00:59:17;28.53;;;10.53;;
2173;SDS011;1093;51.424;11.764;2023-09-12T01:01:49;16.83;;;10.37;;
2173;SDS011;1093;51.424;11.764;2023-09-12T01:04:30;24.37;;;11.30;;
2173;SDS011;1093;51.424;11.764;2023-09-12T01:07:00;19.07;;;10.77;;
2173;SDS011;1093;51.424;11.764;2023-09-12T01:09:30;10.93;;;9.83;;
2173;SDS011;1093;51.424;11.764;2023-09-12T01:12:05;13.50;;;9.20;;
2173;SDS011;1093;51.424;11.764;2023-09-12T01:14:41;16.40;;;9.63;;
2173;SDS011;1093;51.424;11.764;2023-09-12T01:24:00;25.33;;;10.40;;
2173;SDS011;1093;51.424;11.764;2023-09-12T01:26:59;21.40;;;10.23;;
2173;SDS011;1093;51.424;11.764;2023-09-12T01:29:49;14.10;;;9.70;;
2173;SDS011;1093;51.424;11.764;2023-09-12T01:32:21;25.13;;;11.03;;
2173;SDS011;1093;51.424;11.764;2023-09-12T01:37:25;24.00;;;12.13;;
2173;SDS011;1093;51.424;11.764;2023-09-12T01:39:55;16.57;;;11.07;;
2173;SDS011;1093;51.424;11.764;2023-09-12T01:42:34;20.50;;;11.73;;
2173;SDS011;1093;51.424;11.764;2023-09-12T01:45:06;18.57;;;12.00;;
2173;SDS011;1093;51.424;11.764;2023-09-12T01:55:45;18.27;;;10.17;;
2173;SDS011;1093;51.424;11.764;2023-09-12T01:58:16;28.60;;;11.63;;
2173;SDS011;1093;51.424;11.764;2023-09-12T02:00:43;26.60;;;10.90;;
2173;SDS011;1093;51.424;11.764;2023-09-12T02:03:10;15.00;;;10.37;;
2173;SDS011;1093;51.424;11.764;2023-09-12T02:05:37;13.60;;;10.60;;
2173;SDS011;1093;51.424;11.764;2023-09-12T02:37:22;19.97;;;9.70;;
2173;SDS011;1093;51.424;11.764;2023-09-12T02:39:49;17.73;;;10.10;;
2173;SDS011;1093;51.424;11.764;2023-09-12T02:42:20;19.83;;;11.17;;
2173;SDS011;1093;51.424;11.764;2023-09-12T02:44:56;20.97;;;10.63;;
2173;SDS011;1093;51.424;11.764;2023-09-12T02:50:47;17.77;;;10.90;;
2173;SDS011;1093;51.424;11.764;2023-09-12T02:53:15;29.63;;;12.20;;
2173;SDS011;1093;51.424;11.764;2023-09-12T02:55:43;17.03;;;10.50;;
2173;SDS011;1093;51.424;11.764;2023-09-12T02:58:22;13.33;;;10.23;;
2173;SDS011;1093;51.424;11.764;2023-09-12T03:00:53;19.63;;;11.17;;
2173;SDS011;1093;51.424;11.764;2023-09-12T03:03:54;21.77;;;12.63;;
2173;SDS011;1093;51.424;11.764;2023-09-12T03:06:36;22.23;;;12.60;;
2173;SDS011;1093;51.424;11.764;2023-09-12T03:09:20;15.30;;;11.93;;
2173;SDS011;1093;51.424;11.764;2023-09-12T03:11:52;21.93;;;11.90;;
2173;SDS011;1093;51.424;11.764;2023-09-12T03:14:19;19.17;;;13.23;;
2173;SDS011;1093;51.424;11.764;2023-09-12T03:16:47;28.10;;;13.37;;
2173;SDS011;1093;51.424;11.764;2023-09-12T03:19:14;18.03;;;12.03;;
2173;SDS011;1093;51.424;11.764;2023-09-12T03:21:41;22.10;;;12.37;;
2173;SDS011;1093;51.424;11.764;2023-09-12T03:24:09;23.60;;;12.10;;
2173;SDS011;1093;51.424;11.764;2023-09-12T03:26:39;24.93;;;13.90;;
2173;SDS011;1093;51.424;11.764;2023-09-12T03:29:06;23.33;;;12.53;;
2173;SDS011;1093;51.424;11.764;2023-09-12T03:31:37;19.33;;;11.83;;
2173;SDS011;1093;51.424;11.764;2023-09-12T03:34:04;20.43;;;13.70;;
2173;SDS011;1093;51.424;11.764;2023-09-12T03:36:32;26.20;;;12.10;;
2173;SDS011;1093;51.424;11.764;2023-09-12T03:38:59;16.67;;;11.37;;
2173;SDS011;1093;51.424;11.764;2023-09-12T03:41:26;21.50;;;11.70;;
2173;SDS011;1093;51.424;11.764;2023-09-12T03:43:57;19.83;;;12.40;;
2173;SDS011;1093;51.424;11.764;2023-09-12T03:46:24;14.20;;;11.60;;
2173;SDS011;1093;51.424;11.764;2023-09-12T03:48:57;18.63;;;11.80;;
2173;SDS011;1093;51.424;11.764;2023-09-12T03:51:46;21.00;;;10.20;;
2173;SDS011;1093;51.424;11.764;2023-09-12T03:54:14;22.20;;;12.03;;
2173;SDS011;1093;51.424;11.764;2023-09-12T03:56:55;22.07;;;12.97;;
2173;SDS011;1093;51.424;11.764;2023-09-12T03:59:40;18.13;;;11.87;;
2173;SDS011;1093;51.424;11.764;2023-09-12T04:05:24;22.63;;;12.10;;
2173;SDS011;1093;51.424;11.764;2023-09-12T04:11:25;19.63;;;11.80;;
2173;SDS011;1093;51.424;11.764;2023-09-12T04:21:49;20.50;;;12.57;;
2173;SDS011;1093;51.424;11.764;2023-09-12T04:24:35;18.20;;;13.40;;
2173;SDS011;1093;51.424;11.764;2023-09-12T04:27:08;22.80;;;14.63;;
2173;SDS011;1093;51.424;11.764;2023-09-12T04:29:43;25.00;;;12.93;;
2173;SDS011;1093;51.424;11.764;2023-09-12T04:32:29;25.47;;;11.53;;
2173;SDS011;1093;51.424;11.764;2023-09-12T04:35:05;18.33;;;12.67;;
2173;SDS011;1093;51.424;11.764;2023-09-12T04:38:04;18.27;;;11.20;;
2173;SDS011;1093;51.424;11.764;2023-09-12T04:40:32;21.63;;;11.10;;
2173;SDS011;1093;51.424;11.764;2023-09-12T04:43:05;20.80;;;12.60;;
2173;SDS011;1093;51.424;11.764;2023-09-12T04:45:56;21.17;;;13.10;;
2173;SDS011;1093;51.424;11.764;2023-09-12T04:48:26;15.00;;;11.53;;
2173;SDS011;1093;51.424;11.764;2023-09-12T04:50:54;22.83;;;13.27;;
2173;SDS011;1093;51.424;11.764;2023-09-12T04:53:25;19.13;;;12.33;;
2173;SDS011;1093;51.424;11.764;2023-09-12T04:59:14;21.80;;;13.00;;
2173;SDS011;1093;51.424;11.764;2023-09-12T05:01:42;19.10;;;14.40;;
2173;SDS011;1093;51.424;11.764;2023-09-12T05:04:10;21.40;;;14.20;;
2173;SDS011;1093;51.424;11.764;2023-09-12T05:06:39;34.90;;;16.87;;
2173;SDS011;1093;51.424;11.764;2023-09-12T05:09:12;24.83;;;15.23;;
2173;SDS011;1093;51.424;11.764;2023-09-12T05:11:40;28.03;;;15.10;;
2173;SDS011;1093;51.424;11.764;2023-09-12T05:14:09;22.13;;;15.80;;
2173;SDS011;1093;51.424;11.764;2023-09-12T05:16:36;30.73;;;17.50;;
2173;SDS011;1093;51.424;11.764;2023-09-12T05:22:28;25.10;;;15.60;;
2173;SDS011;1093;51.424;11.764;2023-09-12T05:24:59;32.83;;;16.50;;
2173;SDS011;1093;51.424;11.764;2023-09-12T05:27:30;23.30;;;16.63;;
2173;SDS011;1093;51.424;11.764;2023-09-12T05:30:05;34.33;;;17.73;;
2173;SDS011;1093;51.424;11.764;2023-09-12T05:32:33;24.10;;;16.00;;
2173;SDS011;1093;51.424;11.764;2023-09-12T05:35:01;27.80;;;15.60;;
2173;SDS011;1093;51.424;11.764;2023-09-12T05:37:29;25.13;;;18.17;;
2173;SDS011;1093;51.424;11.764;2023-09-12T05:39:58;32.43;;;17.63;;
2173;SDS011;1093;51.424;11.764;2023-09-12T05:42:27;25.80;;;16.90;;
2173;SDS011;1093;51.424;11.764;2023-09-12T05:44:56;31.03;;;16.80;;
2173;SDS011;1093;51.424;11.764;2023-09-12T05:47:28;35.13;;;19.40;;
2173;SDS011;1093;51.424;11.764;2023-09-12T05:49:56;31.53;;;20.57;;
2173;SDS011;1093;51.424;11.764;2023-09-12T05:52:26;29.07;;;18.23;;
2173;SDS011;1093;51.424;11.764;2023-09-12T05:54:54;30.30;;;18.33;;
2173;SDS011;1093;51.424;11.764;2023-09-12T05:57:31;38.27;;;19.53;;
2173;SDS011;1093;51.424;11.764;2023-09-12T05:59:59;27.10;;;17.67;;
2173;SDS011;1093;51.424;11.764;2023-09-12T06:02:29;24.73;;;17.60;;
2173;SDS011;1093;51.424;11.764;2023-09-12T06:04:58;30.87;;;20.30;;
2173;SDS011;1093;51.424;11.764;2023-09-12T06:07:26;34.53;;;22.00;;
2173;SDS011;1093;51.424;11.764;2023-09-12T06:20:15;32.70;;;19.37;;
2173;SDS011;1093;51.424;11.764;2023-09-12T06:23:01;31.90;;;19.73;;
2173;SDS011;1093;51.424;11.764;2023-09-12T06:25:28;31.50;;;19.50;;
2173;SDS011;1093;51.424;11.764;2023-09-12T06:27:55;33.63;;;19.33;;
2173;SDS011;1093;51.424;11.764;2023-09-12T06:30:22;28.07;;;18.67;;
2173;SDS011;1093;51.424;11.764;2023-09-12T06:32:49;33.63;;;17.43;;
2173;SDS011;1093;51.424;11.764;2023-09-12T06:35:17;28.73;;;20.67;;
2173;SDS011;1093;51.424;11.764;2023-09-12T06:37:44;36.83;;;19.43;;
2173;SDS011;1093;51.424;11.764;2023-09-12T06:40:12;27.77;;;17.60;;
2173;SDS011;1093;51.424;11.764;2023-09-12T06:42:39;35.07;;;18.83;;
2173;SDS011;1093;51.424;11.764;2023-09-12T06:45:06;28.97;;;17.40;;
2173;SDS011;1093;51.424;11.764;2023-09-12T06:47:33;23.47;;;15.73;;
2173;SDS011;1093;51.424;11.764;2023-09-12T06:50:00;34.83;;;19.77;;
2173;SDS011;1093;51.424;11.764;2023-09-12T06:52:29;39.67;;;18.50;;
2173;SDS011;1093;51.424;11.764;2023-09-12T06:54:55;40.97;;;18.60;;
2173;SDS011;1093;51.424;11.764;2023-09-12T06:57:22;31.57;;;16.37;;
2173;SDS011;1093;51.424;11.764;2023-09-12T06:59:49;26.20;;;16.93;;
2173;SDS011;1093;51.424;11.764;2023-09-12T07:02:16;22.93;;;15.93;;
2173;SDS011;1093;51.424;11.764;2023-09-12T07:04:43;27.70;;;15.40;;
2173;SDS011;1093;51.424;11.764;2023-09-12T07:07:10;23.60;;;14.90;;
2173;SDS011;1093;51.424;11.764;2023-09-12T07:09:38;26.90;;;15.87;;
2173;SDS011;1093;51.424;11.764;2023-09-12T07:12:06;28.70;;;15.40;;
2173;SDS011;1093;51.424;11.764;2023-09-12T07:14:34;26.03;;;15.70;;
2173;SDS011;1093;51.424;11.764;2023-09-12T07:17:03;25.40;;;14.10;;
2173;SDS011;1093;51.424;11.764;2023-09-12T07:19:31;26.50;;;14.90;;
2173;SDS011;1093;51.424;11.764;2023-09-12T07:21:58;24.10;;;16.23;;
2173;SDS011;1093;51.424;11.764;2023-09-12T07:24:26;20.90;;;15.33;;
2173;SDS011;1093;51.424;11.764;2023-09-12T07:26:57;28.90;;;15.93;;
2173;SDS011;1093;51.424;11.764;2023-09-12T07:29:24;36.10;;;16.00;;
2173;SDS011;1093;51.424;11.764;2023-09-12T07:31:51;33.00;;;14.23;;
2173;SDS011;1093;51.424;11.764;2023-09-12T07:34:18;30.57;;;13.90;;
2173;SDS011;1093;51.424;11.764;2023-09-12T07:36:46;26.33;;;15.37;;
2173;SDS011;1093;51.424;11.764;2023-09-12T07:39:13;27.33;;;16.50;;
2173;SDS011;1093;51.424;11.764;2023-09-12T07:41:40;24.13;;;17.37;;
2173;SDS011;1093;51.424;11.764;2023-09-12T07:44:12;28.00;;;17.13;;
2173;SDS011;1093;51.424;11.764;2023-09-12T07:46:40;21.23;;;16.97;;
2173;SDS011;1093;51.424;11.764;2023-09-12T07:49:08;32.40;;;19.63;;
2173;SDS011;1093;51.424;11.764;2023-09-12T07:51:35;34.60;;;19.20;;
2173;SDS011;1093;51.424;11.764;2023-09-12T07:54:02;33.37;;;20.87;;
2173;SDS011;1093;51.424;11.764;2023-09-12T07:56:30;24.60;;;19.20;;
2173;SDS011;1093;51.424;11.764;2023-09-12T07:58:57;24.63;;;18.97;;
2173;SDS011;1093;51.424;11.764;2023-09-12T08:01:27;23.40;;;20.03;;
2173;SDS011;1093;51.424;11.764;2023-09-12T08:03:54;31.83;;;18.93;;
2173;SDS011;1093;51.424;11.764;2023-09-12T08:06:22;26.90;;;20.17;;
2173;SDS011;1093;51.424;11.764;2023-09-12T08:08:50;22.80;;;19.40;;
2173;SDS011;1093;51.424;11.764;2023-09-12T08:11:18;30.43;;;20.00;;
2173;SDS011;1093;51.424;11.764;2023-09-12T08:13:53;23.83;;;20.20;;
2173;SDS011;1093;51.424;11.764;2023-09-12T08:16:21;26.40;;;18.90;;
2173;SDS011;1093;51.424;11.764;2023-09-12T08:19:00;29.03;;;18.27;;
2173;SDS011;1093;51.424;11.764;2023-09-12T08:21:27;29.57;;;18.20;;
2173;SDS011;1093;51.424;11.764;2023-09-12T08:24:04;28.80;;;16.83;;
2173;SDS011;1093;51.424;11.764;2023-09-12T08:26:33;18.87;;;14.80;;
2173;SDS011;1093;51.424;11.764;2023-09-12T08:29:10;23.60;;;16.80;;
2173;SDS011;1093;51.424;11.764;2023-09-12T08:31:37;19.70;;;14.57;;
2173;SDS011;1093;51.424;11.764;2023-09-12T08:34:05;25.30;;;14.67;;
2173;SDS011;1093;51.424;11.764;2023-09-12T08:36:34;24.13;;;14.47;;
2173;SDS011;1093;51.424;11.764;2023-09-12T08:39:02;18.33;;;14.50;;
2173;SDS011;1093;51.424;11.764;2023-09-12T08:41:37;22.07;;;12.20;;
2173;SDS011;1093;51.424;11.764;2023-09-12T08:44:04;16.00;;;12.50;;
2173;SDS011;1093;51.424;11.764;2023-09-12T08:49:56;18.60;;;12.50;;
2173;SDS011;1093;51.424;11.764;2023-09-12T08:52:23;16.63;;;13.40;;
2173;SDS011;1093;51.424;11.764;2023-09-12T08:54:50;15.67;;;12.60;;
2173;SDS011;1093;51.424;11.764;2023-09-12T08:57:17;20.23;;;12.50;;
2173;SDS011;1093;51.424;11.764;2023-09-12T08:59:44;14.83;;;12.00;;
2173;SDS011;1093;51.424;11.764;2023-09-12T09:02:13;13.60;;;11.57;;
2173;SDS011;1093;51.424;11.764;2023-09-12T09:04:41;11.60;;;9.70;;
2173;SDS011;1093;51.424;11.764;2023-09-12T09:07:13;12.10;;;10.00;;
2173;SDS011;1093;51.424;11.764;2023-09-12T09:09:40;10.07;;;8.80;;
2173;SDS011;1093;51.424;11.764;2023-09-12T09:12:10;18.20;;;10.73;;
2173;SDS011;1093;51.424;11.764;2023-09-12T09:14:39;11.57;;;8.83;;
2173;SDS011;1093;51.424;11.764;2023-09-12T09:17:07;11.40;;;8.90;;
2173;SDS011;1093;51.424;11.764;2023-09-12T09:19:42;10.67;;;9.57;;
2173;SDS011;1093;51.424;11.764;2023-09-12T09:22:11;10.60;;;8.00;;
2173;SDS011;1093;51.424;11.764;2023-09-12T09:28:04;19.23;;;10.27;;
2173;SDS011;1093;51.424;11.764;2023-09-12T09:30:38;10.77;;;8.57;;
2173;SDS011;1093;51.424;11.764;2023-09-12T09:33:07;14.00;;;8.77;;
2173;SDS011;1093;51.424;11.764;2023-09-12T09:35:36;18.60;;;8.37;;
2173;SDS011;1093;51.424;11.764;2023-09-12T09:38:05;10.90;;;9.50;;
2173;SDS011;1093;51.424;11.764;2023-09-12T09:40:41;10.70;;;8.23;;
2173;SDS011;1093;51.424;11.764;2023-09-12T09:43:10;14.10;;;9.87;;
2173;SDS011;1093;51.424;11.764;2023-09-12T09:45:42;13.83;;;10.50;;
2173;SDS011;1093;51.424;11.764;2023-09-12T09:48:17;17.47;;;10.93;;
2173;SDS011;1093;51.424;11.764;2023-09-12T09:50:46;10.73;;;9.23;;
2173;SDS011;1093;51.424;11.764;2023-09-12T09:53:13;17.37;;;10.47;;
2173;SDS011;1093;51.424;11.764;2023-09-12T09:55:41;16.73;;;11.30;;
2173;SDS011;1093;51.424;11.764;2023-09-12T09:58:10;18.07;;;9.83;;
2173;SDS011;1093;51.424;11.764;2023-09-12T10:00:45;17.07;;;11.50;;
2173;SDS011;1093;51.424;11.764;2023-09-12T10:06:36;13.60;;;10.27;;
2173;SDS011;1093;51.424;11.764;2023-09-12T10:09:07;15.20;;;10.63;;
2173;SDS011;1093;51.424;11.764;2023-09-12T10:11:37;22.07;;;10.63;;
2173;SDS011;1093;51.424;11.764;2023-09-12T10:14:06;12.13;;;9.97;;
2173;SDS011;1093;51.424;11.764;2023-09-12T10:17:00;12.77;;;10.50;;
2173;SDS011;1093;51.424;11.764;2023-09-12T10:19:43;13.47;;;9.70;;
2173;SDS011;1093;51.424;11.764;2023-09-12T10:22:24;14.20;;;9.50;;
2173;SDS011;1093;51.424;11.764;2023-09-12T10:24:56;10.80;;;9.20;;
2173;SDS011;1093;51.424;11.764;2023-09-12T10:27:25;14.70;;;9.50;;
2173;SDS011;1093;51.424;11.764;2023-09-12T10:30:04;13.13;;;9.40;;
2173;SDS011;1093;51.424;11.764;2023-09-12T10:32:34;13.53;;;10.60;;
2173;SDS011;1093;51.424;11.764;2023-09-12T10:35:10;16.27;;;9.33;;
2173;SDS011;1093;51.424;11.764;2023-09-12T10:37:37;10.13;;;8.10;;
2173;SDS011;1093;51.424;11.764;2023-09-12T10:40:08;12.03;;;6.80;;
2173;SDS011;1093;51.424;11.764;2023-09-12T10:42:37;6.77;;;5.80;;
2173;SDS011;1093;51.424;11.764;2023-09-12T10:45:07;13.80;;;7.10;;
2173;SDS011;1093;51.424;11.764;2023-09-12T10:47:36;10.33;;;7.93;;
2173;SDS011;1093;51.424;11.764;2023-09-12T10:50:03;12.90;;;7.93;;
2173;SDS011;1093;51.424;11.764;2023-09-12T10:52:31;8.10;;;7.30;;
2173;SDS011;1093;51.424;11.764;2023-09-12T10:55:01;13.33;;;7.10;;
2173;SDS011;1093;51.424;11.764;2023-09-12T10:57:31;12.27;;;7.60;;
2173;SDS011;1093;51.424;11.764;2023-09-12T11:00:13;12.10;;;7.77;;
2173;SDS011;1093;51.424;11.764;2023-09-12T11:02:40;6.93;;;6.20;;
2173;SDS011;1093;51.424;11.764;2023-09-12T11:08:14;11.17;;;7.63;;
2173;SDS011;1093;51.424;11.764;2023-09-12T11:10:40;15.30;;;6.77;;
2173;SDS011;1093;51.424;11.764;2023-09-12T11:13:08;8.57;;;7.60;;
2173;SDS011;1093;51.424;11.764;2023-09-12T11:21:42;10.23;;;7.63;;
2173;SDS011;1093;51.424;11.764;2023-09-12T11:24:11;12.13;;;7.63;;
2173;SDS011;1093;51.424;11.764;2023-09-12T11:26:55;11.97;;;7.40;;
2173;SDS011;1093;51.424;11.764;2023-09-12T11:29:26;13.87;;;7.80;;
2173;SDS011;1093;51.424;11.764;2023-09-12T11:31:58;17.13;;;7.10;;
2173;SDS011;1093;51.424;11.764;2023-09-12T11:34:28;10.30;;;7.10;;
2173;SDS011;1093;51.424;11.764;2023-09-12T11:37:02;7.37;;;6.57;;
2173;SDS011;1093;51.424;11.764;2023-09-12T11:46:14;7.80;;;6.37;;
2173;SDS011;1093;51.424;11.764;2023-09-12T11:48:47;10.17;;;6.80;;
2173;SDS011;1093;51.424;11.764;2023-09-12T11:51:16;8.77;;;6.67;;
2173;SDS011;1093;51.424;11.764;2023-09-12T11:53:43;6.80;;;6.10;;
2173;SDS011;1093;51.424;11.764;2023-09-12T11:56:18;10.23;;;6.87;;
2173;SDS011;1093;51.424;11.764;2023-09-12T11:58:47;7.80;;;6.00;;
2173;SDS011;1093;51.424;11.764;2023-09-12T12:01:15;8.03;;;6.43;;
2173;SDS011;1093;51.424;11.764;2023-09-12T12:03:47;10.70;;;6.10;;
2173;SDS011;1093;51.424;11.764;2023-09-12T12:06:18;11.83;;;6.60;;
2173;SDS011;1093;51.424;11.764;2023-09-12T12:08:45;12.93;;;6.80;;
2173;SDS011;1093;51.424;11.764;2023-09-12T12:11:14;9.00;;;6.40;;
2173;SDS011;1093;51.424;11.764;2023-09-12T12:13:41;14.20;;;7.03;;
2173;SDS011;1093;51.424;11.764;2023-09-12T12:16:14;9.30;;;6.40;;
2173;SDS011;1093;51.424;11.764;2023-09-12T12:18:42;7.47;;;6.77;;
2173;SDS011;1093;51.424;11.764;2023-09-12T12:21:10;10.03;;;6.07;;
2173;SDS011;1093;51.424;11.764;2023-09-12T12:23:37;11.27;;;6.40;;
2173;SDS011;1093;51.424;11.764;2023-09-12T12:26:05;9.40;;;6.40;;
2173;SDS011;1093;51.424;11.764;2023-09-12T12:28:35;8.00;;;7.10;;
2173;SDS011;1093;51.424;11.764;2023-09-12T12:31:02;12.57;;;6.43;;
2173;SDS011;1093;51.424;11.764;2023-09-12T12:33:30;13.27;;;7.20;;
2173;SDS011;1093;51.424;11.764;2023-09-12T12:36:00;10.20;;;6.60;;
2173;SDS011;1093;51.424;11.764;2023-09-12T12:38:32;10.53;;;8.00;;
2173;SDS011;1093;51.424;11.764;2023-09-12T12:41:00;9.67;;;7.07;;
2173;SDS011;1093;51.424;11.764;2023-09-12T12:43:30;9.37;;;7.00;;
2173;SDS011;1093;51.424;11.764;2023-09-12T12:45:58;8.90;;;7.63;;
2173;SDS011;1093;51.424;11.764;2023-09-12T12:48:31;9.93;;;7.20;;
2173;SDS011;1093;51.424;11.764;2023-09-12T12:51:12;11.43;;;6.70;;
2173;SDS011;1093;51.424;11.764;2023-09-12T12:53:46;11.57;;;6.67;;
2173;SDS011;1093;51.424;11.764;2023-09-12T12:56:16;8.43;;;6.50;;
2173;SDS011;1093;51.424;11.764;2023-09-12T12:58:45;9.07;;;6.27;;
2173;SDS011;1093;51.424;11.764;2023-09-12T13:01:13;10.03;;;7.10;;
2173;SDS011;1093;51.424;11.764;2023-09-12T13:03:41;16.20;;;7.43;;
2173;SDS011;1093;51.424;11.764;2023-09-12T13:06:08;8.67;;;6.43;;
2173;SDS011;1093;51.424;11.764;2023-09-12T13:08:38;9.80;;;7.33;;
2173;SDS011;1093;51.424;11.764;2023-09-12T13:11:08;10.30;;;6.93;;
2173;SDS011;1093;51.424;11.764;2023-09-12T13:13:40;12.63;;;7.70;;
2173;SDS011;1093;51.424;11.764;2023-09-12T13:16:12;13.10;;;6.50;;
2173;SDS011;1093;51.424;11.764;2023-09-12T13:18:40;9.20;;;6.90;;
2173;SDS011;1093;51.424;11.764;2023-09-12T13:21:07;9.67;;;6.83;;
2173;SDS011;1093;51.424;11.764;2023-09-12T13:23:35;11.63;;;6.80;;
2173;SDS011;1093;51.424;11.764;2023-09-12T13:26:03;8.50;;;6.57;;
2173;SDS011;1093;51.424;11.764;2023-09-12T13:28:33;11.03;;;7.67;;
2173;SDS011;1093;51.424;11.764;2023-09-12T13:31:00;9.40;;;7.03;;
2173;SDS011;1093;51.424;11.764;2023-09-12T13:33:27;13.80;;;8.30;;
2173;SDS011;1093;51.424;11.764;2023-09-12T13:35:54;14.33;;;8.10;;
2173;SDS011;1093;51.424;11.764;2023-09-12T13:38:21;11.70;;;7.10;;
2173;SDS011;1093;51.424;11.764;2023-09-12T13:40:49;9.90;;;6.87;;
2173;SDS011;1093;51.424;11.764;2023-09-12T13:43:16;8.23;;;6.30;;
2173;SDS011;1093;51.424;11.764;2023-09-12T13:45:47;7.60;;;6.63;;
2173;SDS011;1093;51.424;11.764;2023-09-12T13:48:14;7.80;;;6.93;;
2173;SDS011;1093;51.424;11.764;2023-09-12T13:50:42;10.77;;;6.80;;
2173;SDS011;1093;51.424;11.764;2023-09-12T13:53:09;14.17;;;7.20;;
2173;SDS011;1093;51.424;11.764;2023-09-12T13:55:36;11.10;;;7.50;;
2173;SDS011;1093;51.424;11.764;2023-09-12T13:58:04;13.10;;;6.80;;
2173;SDS011;1093;51.424;11.764;2023-09-12T14:00:31;11.83;;;6.90;;
2173;SDS011;1093;51.424;11.764;2023-09-12T14:03:07;12.03;;;6.97;;
2173;SDS011;1093;51.424;11.764;2023-09-12T14:05:34;13.70;;;7.37;;
2173;SDS011;1093;51.424;11.764;2023-09-12T14:08:01;9.37;;;7.13;;
2173;SDS011;1093;51.424;11.764;2023-09-12T14:10:29;8.77;;;7.97;;
2173;SDS011;1093;51.424;11.764;2023-09-12T14:12:56;10.80;;;7.80;;
2173;SDS011;1093;51.424;11.764;2023-09-12T14:15:23;8.20;;;7.00;;
2173;SDS011;1093;51.424;11.764;2023-09-12T14:17:51;7.27;;;6.57;;
2173;SDS011;1093;51.424;11.764;2023-09-12T14:20:19;14.83;;;6.97;;
2173;SDS011;1093;51.424;11.764;2023-09-12T14:22:46;15.90;;;7.20;;
2173;SDS011;1093;51.424;11.764;2023-09-12T14:25:13;16.50;;;7.57;;
2173;SDS011;1093;51.424;11.764;2023-09-12T14:27:41;8.47;;;7.03;;
2173;SDS011;1093;51.424;11.764;2023-09-12T14:30:09;11.00;;;8.10;;
2173;SDS011;1093;51.424;11.764;2023-09-12T14:36:04;13.87;;;8.20;;
2173;SDS011;1093;51.424;11.764;2023-09-12T14:38:31;10.97;;;7.57;;
2173;SDS011;1093;51.424;11.764;2023-09-12T14:41:00;10.60;;;6.33;;
2173;SDS011;1093;51.424;11.764;2023-09-12T14:43:27;17.97;;;8.37;;
2173;SDS011;1093;51.424;11.764;2023-09-12T14:45:55;19.20;;;8.70;;
2173;SDS011;1093;51.424;11.764;2023-09-12T14:48:22;20.87;;;7.93;;
2173;SDS011;1093;51.424;11.764;2023-09-12T14:50:51;8.97;;;7.37;;
2173;SDS011;1093;51.424;11.764;2023-09-12T14:53:21;10.93;;;7.20;;
2173;SDS011;1093;51.424;11.764;2023-09-12T14:55:48;19.00;;;8.93;;
2173;SDS011;1093;51.424;11.764;2023-09-12T14:58:16;16.30;;;7.53;;
2173;SDS011;1093;51.424;11.764;2023-09-12T15:00:42;12.20;;;7.67;;
2173;SDS011;1093;51.424;11.764;2023-09-12T15:03:12;17.10;;;7.77;;
2173;SDS011;1093;51.424;11.764;2023-09-12T15:05:38;14.00;;;7.70;;
2173;SDS011;1093;51.424;11.764;2023-09-12T15:08:05;14.10;;;7.37;;
2173;SDS011;1093;51.424;11.764;2023-09-12T15:14:01;13.57;;;7.73;;
2173;SDS011;1093;51.424;11.764;2023-09-12T15:16:28;13.27;;;7.80;;
2173;SDS011;1093;51.424;11.764;2023-09-12T15:18:59;9.77;;;7.30;;
2173;SDS011;1093;51.424;11.764;2023-09-12T15:21:27;12.20;;;7.53;;
2173;SDS011;1093;51.424;11.764;2023-09-12T15:23:53;13.20;;;8.17;;
2173;SDS011;1093;51.424;11.764;2023-09-12T15:26:28;11.17;;;7.67;;
2173;SDS011;1093;51.424;11.764;2023-09-12T15:28:55;13.40;;;7.70;;
2173;SDS011;1093;51.424;11.764;2023-09-12T15:31:25;11.20;;;9.00;;
2173;SDS011;1093;51.424;11.764;2023-09-12T15:33:52;14.93;;;8.30;;
2173;SDS011;1093;51.424;11.764;2023-09-12T15:36:21;13.00;;;8.30;;
2173;SDS011;1093;51.424;11.764;2023-09-12T15:38:48;11.57;;;8.07;;
2173;SDS011;1093;51.424;11.764;2023-09-12T15:41:17;9.47;;;7.87;;
2173;SDS011;1093;51.424;11.764;2023-09-12T15:43:43;25.37;;;8.30;;
2173;SDS011;1093;51.424;11.764;2023-09-12T15:46:12;12.37;;;8.10;;
2173;SDS011;1093;51.424;11.764;2023-09-12T15:48:53;9.80;;;8.07;;
2173;SDS011;1093;51.424;11.764;2023-09-12T15:51:20;14.10;;;8.70;;
2173;SDS011;1093;51.424;11.764;2023-09-12T15:53:47;14.27;;;8.67;;
2173;SDS011;1093;51.424;11.764;2023-09-12T15:56:14;15.30;;;8.80;;
2173;SDS011;1093;51.424;11.764;2023-09-12T15:58:41;10.80;;;8.80;;
2173;SDS011;1093;51.424;11.764;2023-09-12T16:01:13;13.27;;;8.00;;
2173;SDS011;1093;51.424;11.764;2023-09-12T16:03:42;17.70;;;8.70;;
2173;SDS011;1093;51.424;11.764;2023-09-12T16:06:09;10.60;;;9.10;;
2173;SDS011;1093;51.424;11.764;2023-09-12T16:08:36;12.23;;;8.50;;
2173;SDS011;1093;51.424;11.764;2023-09-12T16:11:05;16.50;;;8.10;;
2173;SDS011;1093;51.424;11.764;2023-09-12T16:13:31;12.67;;;9.03;;
2173;SDS011;1093;51.424;11.764;2023-09-12T16:15:59;15.67;;;8.73;;
2173;SDS011;1093;51.424;11.764;2023-09-12T16:18:29;13.80;;;9.50;;
2173;SDS011;1093;51.424;11.764;2023-09-12T16:20:57;18.27;;;8.23;;
2173;SDS011;1093;51.424;11.764;2023-09-12T16:23:25;13.37;;;8.70;;
2173;SDS011;1093;51.424;11.764;2023-09-12T16:25:56;15.90;;;9.10;;
2173;SDS011;1093;51.424;11.764;2023-09-12T16:28:23;13.93;;;9.37;;
2173;SDS011;1093;51.424;11.764;2023-09-12T16:30:50;19.33;;;9.20;;
2173;SDS011;1093;51.424;11.764;2023-09-12T16:33:20;17.20;;;8.70;;
2173;SDS011;1093;51.424;11.764;2023-09-12T16:35:51;11.20;;;8.63;;
2173;SDS011;1093;51.424;11.764;2023-09-12T16:38:19;18.73;;;8.73;;
2173;SDS011;1093;51.424;11.764;2023-09-12T16:40:47;16.43;;;10.37;;
2173;SDS011;1093;51.424;11.764;2023-09-12T16:43:22;15.47;;;9.50;;
2173;SDS011;1093;51.424;11.764;2023-09-12T16:45:53;17.13;;;9.80;;
2173;SDS011;1093;51.424;11.764;2023-09-12T16:48:20;11.87;;;8.50;;
2173;SDS011;1093;51.424;11.764;2023-09-12T16:50:49;15.23;;;8.57;;
2173;SDS011;1093;51.424;11.764;2023-09-12T16:53:17;11.90;;;8.87;;
2173;SDS011;1093;51.424;11.764;2023-09-12T16:55:45;14.70;;;9.17;;
2173;SDS011;1093;51.424;11.764;2023-09-12T16:58:12;13.30;;;9.23;;
2173;SDS011;1093;51.424;11.764;2023-09-12T17:00:39;14.10;;;7.47;;
2173;SDS011;1093;51.424;11.764;2023-09-12T17:03:06;9.23;;;7.07;;
2173;SDS011;1093;51.424;11.764;2023-09-12T17:05:33;13.00;;;6.90;;
2173;SDS011;1093;51.424;11.764;2023-09-12T17:08:01;6.70;;;5.80;;
2173;SDS011;1093;51.424;11.764;2023-09-12T17:10:28;7.03;;;5.40;;
2173;SDS011;1093;51.424;11.764;2023-09-12T17:12:55;8.33;;;5.00;;
2173;SDS011;1093;51.424;11.764;2023-09-12T17:15:22;9.57;;;5.67;;
2173;SDS011;1093;51.424;11.764;2023-09-12T17:17:54;5.67;;;5.10;;
2173;SDS011;1093;51.424;11.764;2023-09-12T17:20:27;6.23;;;5.03;;